Burtonville, Kentucky
Current Conditions -  °F | °C
As of 1:35 PM on Sunday 21 Dec 2014 (Local Time) from KFGX Reporting Station
Scattered Clouds Scattered Clouds  
Wind Chill: 28°   Ceiling: Unl
Heat Index: 34°   Visibility: 10mi
Dew Point: 27°   Wind: 6mph
Humidity: 78%   Direction: 60°ENE
Pressure: 30.23"   Gusts: NA
Location:  38.5845°N, 83.5468°W
Report Text: KFGX 211835Z AUTO 06005KT 10SM SCT016 01/M03 A3023 RMK AO2 T00091026
Loading
Personal Weather Stations






























Interactive Weather Map New forecast layout! Learn more

10-Day Weather Forecast

Advertisements
Track Severe Weather on mobile